Aleksandr Zhitnik — EMBN — position and weather

sailwx.info

Track history (hours):
 
Tides and Currents Weather Stations Pressure Air Temp Water Temp Dewpoint Dewpoint Depression Visibility Wind Speed Wind Dir Waves Ship Positions

Aleksandr Zhitnik

Last reported at 2017-Mar-27 15:33 UTC. Time now 2017-Mar-27 16:18 UTC.
Position N 44°42' E 020°57'.

Length 85 m; draft 2.4 m.

MMSI: 272089600.

Date/timePositionNaut miles runAvg speedWind from/ knotsBaromVisibWave heightAir tempDewpointWater temp
2017-Mar-27 15:33N 44°42' E 020°57'0 0.2
2017-Mar-27 14:33N 44°42' E 020°58'0 0.0
2017-Mar-27 13:33N 44°42' E 020°58'0 0.0
2017-Mar-27 12:34N 44°42' E 020°58'0 0.0
2017-Mar-27 11:33N 44°42' E 020°58'0 0.0
2017-Mar-27 10:33N 44°42' E 020°58'0 0.0
2017-Mar-27 09:34N 44°42' E 020°58'0 0.0
2017-Mar-27 08:34N 44°42' E 020°58'0 0.2
2017-Mar-27 07:34N 44°42' E 020°57'0 0.0
2017-Mar-27 06:34N 44°42' E 020°57'0 0.0
2017-Mar-27 05:34N 44°42' E 020°57'0 0.2
2017-Mar-27 04:34N 44°42' E 020°58'0 0.0
2017-Mar-27 03:33N 44°42' E 020°58'0 0.0
2017-Mar-27 02:34N 44°42' E 020°58'0 0.0
2017-Mar-27 01:34N 44°42' E 020°58'0 0.0
2017-Mar-27 00:34N 44°42' E 020°58'0 0.0
2017-Mar-26 23:33N 44°42' E 020°58'0 0.0
2017-Mar-26 22:34N 44°42' E 020°58'0 0.0
2017-Mar-26 21:34N 44°42' E 020°58'0 0.2
2017-Mar-26 20:34N 44°42' E 020°58'0 0.0
2017-Mar-26 19:34N 44°42' E 020°58'0 0.0
2017-Mar-26 18:34N 44°42' E 020°58'0 0.0
2017-Mar-26 17:34N 44°42' E 020°58'0 0.0
2017-Mar-26 16:34N 44°42' E 020°58'0 0.0
2017-Mar-26 15:34N 44°42' E 020°58'0 0.0
2017-Mar-26 14:34N 44°42' E 020°58'0 0.1
2017-Mar-26 13:34N 44°42' E 020°58'2 2.2
2017-Mar-26 12:33N 44°43' E 021°01'2 2.4
2017-Mar-26 11:33N 44°43' E 021°04'2 2.3
2017-Mar-26 10:34N 44°44' E 021°07'2 2.5
2017-Mar-26 09:34N 44°45' E 021°10'2 2.1
2017-Mar-26 08:33N 44°46' E 021°12'2 2.5
2017-Mar-26 07:34N 44°48' E 021°15'4 2.8
2017-Mar-26 06:07N 44°49' E 021°20'4 2.3
2017-Mar-26 04:33N 44°47' E 021°24'2 2.5
2017-Mar-26 03:34N 44°47' E 021°27'2 2.5
2017-Mar-26 02:33N 44°46' E 021°31'0 0.3
2017-Mar-26 01:33N 44°46' E 021°31'0 0.0
2017-Mar-26 00:33N 44°46' E 021°31'0 0.0
2017-Mar-25 23:33N 44°46' E 021°31'0 0.0
2017-Mar-25 22:33N 44°46' E 021°31'0 0.2
2017-Mar-25 21:33N 44°46' E 021°31'2 2.1
2017-Mar-25 20:33N 44°46' E 021°34'2 2.3
2017-Mar-25 19:33N 44°44' E 021°36'3 2.5
2017-Mar-25 18:17N 44°42' E 021°39'17 2.1
2017-Mar-25 10:27N 44°36' E 022°01'2 2.6
2017-Mar-25 09:33N 44°34' E 022°02'3 2.8
2017-Mar-25 08:33N 44°32' E 022°04'3 2.8
2017-Mar-25 07:33N 44°29' E 022°06'3 2.9
2017-Mar-25 06:33N 44°28' E 022°10'3 2.7
2017-Mar-25 05:33N 44°31' E 022°12'3 3.3
2017-Mar-25 04:33N 44°34' E 022°14'7 3.1
2017-Mar-25 02:22N 44°40' E 022°18'3 3.3
2017-Mar-25 01:32N 44°41' E 022°22'3 3.4
2017-Mar-25 00:33N 44°43' E 022°26'3 3.0
2017-Mar-24 23:33N 44°42' E 022°30'2 2.1
2017-Mar-24 22:33N 44°40' E 022°31'0 0.2
2017-Mar-24 21:33N 44°40' E 022°32'1 0.6
2017-Mar-24 20:33N 44°40' E 022°32'2 2.0
2017-Mar-24 19:33N 44°38' E 022°34'2 2.1
2017-Mar-24 18:33N 44°37' E 022°37'2 2.4
2017-Mar-24 17:33N 44°37' E 022°40'3 2.6
2017-Mar-24 16:33N 44°36' E 022°43'3 2.6
2017-Mar-24 15:34N 44°33' E 022°45'2 1.8
2017-Mar-24 14:33N 44°32' E 022°44'2 1.9
2017-Mar-24 13:33N 44°31' E 022°42'2 2.4
2017-Mar-24 12:33N 44°32' E 022°39'3 2.6
2017-Mar-24 11:33N 44°33' E 022°36'2 2.5
2017-Mar-24 10:33N 44°31' E 022°34'3 2.8
2017-Mar-24 09:33N 44°28' E 022°32'3 2.8
2017-Mar-24 08:33N 44°29' E 022°28'2 2.3
2017-Mar-24 07:33N 44°26' E 022°28'3 2.9
2017-Mar-24 06:34N 44°24' E 022°30'3 3.1
2017-Mar-24 05:33N 44°21' E 022°31'2 2.5
2017-Mar-24 04:33N 44°19' E 022°34'2 1.8
2017-Mar-24 03:33N 44°18' E 022°36'2 2.0
2017-Mar-24 02:34N 44°17' E 022°39'2 2.2
2017-Mar-24 01:34N 44°16' E 022°41'2 2.1
2017-Mar-24 00:34N 44°14' E 022°41'2 1.6
2017-Mar-23 23:33N 44°13' E 022°41'2 1.9
2017-Mar-23 22:33N 44°12' E 022°44'2 1.7
2017-Mar-23 21:33N 44°11' E 022°46'2 1.9
2017-Mar-23 20:33N 44°10' E 022°47'2 2.1
2017-Mar-23 19:33N 44°09' E 022°50'2 1.9
2017-Mar-23 18:33N 44°08' E 022°52'2 2.0
2017-Mar-23 17:33N 44°07' E 022°54'2 1.6
2017-Mar-23 16:33N 44°06' E 022°56'2 1.9
2017-Mar-23 15:33N 44°06' E 022°59'2 2.0
2017-Mar-23 14:33N 44°05' E 023°02'2 1.8
2017-Mar-23 13:33N 44°04' E 023°03'2 1.7
2017-Mar-23 12:33N 44°02' E 023°02'2 1.7
2017-Mar-23 11:33N 44°01' E 023°00'2 1.9
2017-Mar-23 10:33N 44°00' E 022°58'2 1.9
2017-Mar-23 09:33N 43°60' E 022°55'2 1.9
2017-Mar-23 08:33N 43°59' E 022°53'2 2.0
2017-Mar-23 07:33N 43°57' E 022°52'2 2.0
2017-Mar-23 06:33N 43°55' E 022°51'2 1.6
2017-Mar-23 05:33N 43°54' E 022°51'2 2.0
2017-Mar-23 04:33N 43°52' E 022°51'2 2.0
2017-Mar-23 03:33N 43°50' E 022°53'2 2.1
2017-Mar-23 02:33N 43°50' E 022°55'2 2.0
2017-Mar-23 01:32N 43°49' E 022°58'2 2.0
2017-Mar-23 00:33N 43°48' E 023°01'2 1.9
2017-Mar-22 23:33N 43°48' E 023°03'2 1.8
2017-Mar-22 22:33N 43°48' E 023°06'2 2.0
2017-Mar-22 21:33N 43°48' E 023°09'2 1.8
2017-Mar-22 20:33N 43°49' E 023°11'2 2.2
2017-Mar-22 19:33N 43°50' E 023°13'2 2.0
2017-Mar-22 18:33N 43°51' E 023°16'2 2.1
2017-Mar-22 17:33N 43°51' E 023°19'2 2.2
2017-Mar-22 16:33N 43°51' E 023°22'30 1.9
2017-Mar-22 00:10N 43°43' E 024°03'  
Track history (hours):
 
Tides and Currents Weather Stations Pressure Air Temp Water Temp Dewpoint Dewpoint Depression Visibility Wind Speed Wind Dir Waves Ship Positions

Aleksandr Zhitnik

Last reported at 2017-Mar-27 15:33 UTC. Time now 2017-Mar-27 16:18 UTC.
Position N 44°42' E 020°57'.

Length 85 m; draft 2.4 m.

MMSI: 272089600.

Date/timePositionNaut miles runAvg speedWind from/ knotsBaromVisibWave heightAir tempDewpointWater temp
2017-Mar-27 15:33N 44°42' E 020°57'0 0.2
2017-Mar-27 14:33N 44°42' E 020°58'0 0.0
2017-Mar-27 13:33N 44°42' E 020°58'0 0.0
2017-Mar-27 12:34N 44°42' E 020°58'0 0.0
2017-Mar-27 11:33N 44°42' E 020°58'0 0.0
2017-Mar-27 10:33N 44°42' E 020°58'0 0.0
2017-Mar-27 09:34N 44°42' E 020°58'0 0.0
2017-Mar-27 08:34N 44°42' E 020°58'0 0.2
2017-Mar-27 07:34N 44°42' E 020°57'0 0.0
2017-Mar-27 06:34N 44°42' E 020°57'0 0.0
2017-Mar-27 05:34N 44°42' E 020°57'0 0.2
2017-Mar-27 04:34N 44°42' E 020°58'0 0.0
2017-Mar-27 03:33N 44°42' E 020°58'0 0.0
2017-Mar-27 02:34N 44°42' E 020°58'0 0.0
2017-Mar-27 01:34N 44°42' E 020°58'0 0.0
2017-Mar-27 00:34N 44°42' E 020°58'0 0.0
2017-Mar-26 23:33N 44°42' E 020°58'0 0.0
2017-Mar-26 22:34N 44°42' E 020°58'0 0.0
2017-Mar-26 21:34N 44°42' E 020°58'0 0.2
2017-Mar-26 20:34N 44°42' E 020°58'0 0.0
2017-Mar-26 19:34N 44°42' E 020°58'0 0.0
2017-Mar-26 18:34N 44°42' E 020°58'0 0.0
2017-Mar-26 17:34N 44°42' E 020°58'0 0.0
2017-Mar-26 16:34N 44°42' E 020°58'0 0.0
2017-Mar-26 15:34N 44°42' E 020°58'0 0.0
2017-Mar-26 14:34N 44°42' E 020°58'0 0.1
2017-Mar-26 13:34N 44°42' E 020°58'2 2.2
2017-Mar-26 12:33N 44°43' E 021°01'2 2.4
2017-Mar-26 11:33N 44°43' E 021°04'2 2.3
2017-Mar-26 10:34N 44°44' E 021°07'2 2.5
2017-Mar-26 09:34N 44°45' E 021°10'2 2.1
2017-Mar-26 08:33N 44°46' E 021°12'2 2.5
2017-Mar-26 07:34N 44°48' E 021°15'4 2.8
2017-Mar-26 06:07N 44°49' E 021°20'4 2.3
2017-Mar-26 04:33N 44°47' E 021°24'2 2.5
2017-Mar-26 03:34N 44°47' E 021°27'2 2.5
2017-Mar-26 02:33N 44°46' E 021°31'0 0.3
2017-Mar-26 01:33N 44°46' E 021°31'0 0.0
2017-Mar-26 00:33N 44°46' E 021°31'0 0.0
2017-Mar-25 23:33N 44°46' E 021°31'0 0.0
2017-Mar-25 22:33N 44°46' E 021°31'0 0.2
2017-Mar-25 21:33N 44°46' E 021°31'2 2.1
2017-Mar-25 20:33N 44°46' E 021°34'2 2.3
2017-Mar-25 19:33N 44°44' E 021°36'3 2.5
2017-Mar-25 18:17N 44°42' E 021°39'17 2.1
2017-Mar-25 10:27N 44°36' E 022°01'2 2.6
2017-Mar-25 09:33N 44°34' E 022°02'3 2.8
2017-Mar-25 08:33N 44°32' E 022°04'3 2.8
2017-Mar-25 07:33N 44°29' E 022°06'3 2.9
2017-Mar-25 06:33N 44°28' E 022°10'3 2.7
2017-Mar-25 05:33N 44°31' E 022°12'3 3.3
2017-Mar-25 04:33N 44°34' E 022°14'7 3.1
2017-Mar-25 02:22N 44°40' E 022°18'3 3.3
2017-Mar-25 01:32N 44°41' E 022°22'3 3.4
2017-Mar-25 00:33N 44°43' E 022°26'3 3.0
2017-Mar-24 23:33N 44°42' E 022°30'2 2.1
2017-Mar-24 22:33N 44°40' E 022°31'0 0.2
2017-Mar-24 21:33N 44°40' E 022°32'1 0.6
2017-Mar-24 20:33N 44°40' E 022°32'2 2.0
2017-Mar-24 19:33N 44°38' E 022°34'2 2.1
2017-Mar-24 18:33N 44°37' E 022°37'2 2.4
2017-Mar-24 17:33N 44°37' E 022°40'3 2.6
2017-Mar-24 16:33N 44°36' E 022°43'3 2.6
2017-Mar-24 15:34N 44°33' E 022°45'2 1.8
2017-Mar-24 14:33N 44°32' E 022°44'2 1.9
2017-Mar-24 13:33N 44°31' E 022°42'2 2.4
2017-Mar-24 12:33N 44°32' E 022°39'3 2.6
2017-Mar-24 11:33N 44°33' E 022°36'2 2.5
2017-Mar-24 10:33N 44°31' E 022°34'3 2.8
2017-Mar-24 09:33N 44°28' E 022°32'3 2.8
2017-Mar-24 08:33N 44°29' E 022°28'2 2.3
2017-Mar-24 07:33N 44°26' E 022°28'3 2.9
2017-Mar-24 06:34N 44°24' E 022°30'3 3.1
2017-Mar-24 05:33N 44°21' E 022°31'2 2.5
2017-Mar-24 04:33N 44°19' E 022°34'2 1.8
2017-Mar-24 03:33N 44°18' E 022°36'2 2.0
2017-Mar-24 02:34N 44°17' E 022°39'2 2.2
2017-Mar-24 01:34N 44°16' E 022°41'2 2.1
2017-Mar-24 00:34N 44°14' E 022°41'2 1.6
2017-Mar-23 23:33N 44°13' E 022°41'2 1.9
2017-Mar-23 22:33N 44°12' E 022°44'2 1.7
2017-Mar-23 21:33N 44°11' E 022°46'2 1.9
2017-Mar-23 20:33N 44°10' E 022°47'2 2.1
2017-Mar-23 19:33N 44°09' E 022°50'2 1.9
2017-Mar-23 18:33N 44°08' E 022°52'2 2.0
2017-Mar-23 17:33N 44°07' E 022°54'2 1.6
2017-Mar-23 16:33N 44°06' E 022°56'2 1.9
2017-Mar-23 15:33N 44°06' E 022°59'2 2.0
2017-Mar-23 14:33N 44°05' E 023°02'2 1.8
2017-Mar-23 13:33N 44°04' E 023°03'2 1.7
2017-Mar-23 12:33N 44°02' E 023°02'2 1.7
2017-Mar-23 11:33N 44°01' E 023°00'2 1.9
2017-Mar-23 10:33N 44°00' E 022°58'2 1.9
2017-Mar-23 09:33N 43°60' E 022°55'2 1.9
2017-Mar-23 08:33N 43°59' E 022°53'2 2.0
2017-Mar-23 07:33N 43°57' E 022°52'2 2.0
2017-Mar-23 06:33N 43°55' E 022°51'2 1.6
2017-Mar-23 05:33N 43°54' E 022°51'2 2.0
2017-Mar-23 04:33N 43°52' E 022°51'2 2.0
2017-Mar-23 03:33N 43°50' E 022°53'2 2.1
2017-Mar-23 02:33N 43°50' E 022°55'2 2.0
2017-Mar-23 01:32N 43°49' E 022°58'2 2.0
2017-Mar-23 00:33N 43°48' E 023°01'2 1.9
2017-Mar-22 23:33N 43°48' E 023°03'2 1.8
2017-Mar-22 22:33N 43°48' E 023°06'2 2.0
2017-Mar-22 21:33N 43°48' E 023°09'2 1.8
2017-Mar-22 20:33N 43°49' E 023°11'2 2.2
2017-Mar-22 19:33N 43°50' E 023°13'2 2.0
2017-Mar-22 18:33N 43°51' E 023°16'2 2.1
2017-Mar-22 17:33N 43°51' E 023°19'2 2.2
2017-Mar-22 16:33N 43°51' E 023°22'30 1.9
2017-Mar-22 00:10N 43°43' E 024°03'  

Dump ship's entire track history